Time;durP1;ratioP1;P1;durP2;ratioP2;P2;SDS_P1;SDS_P2;PMS_P1;PMS_P2;Temp;Humidity;BMP_temperature;BMP_pressure;BME280_temperature;BME280_humidity;BME280_pressure;Samples;Min_cycle;Max_cycle;Signal;HPM_P1;HPM_P2
2021/04/20 00:00:50;;;;;;;21.16;13.03;;;;;;;;;;368249;144;857679;-60
2021/04/20 00:01:51;;;;;;;24.30;12.63;;;;;;;;;;366111;147;864926;-61
2021/04/20 00:02:53;;;;;;;21.01;12.87;;;;;;;;;;366256;146;857840;-61
2021/04/20 00:03:55;;;;;;;20.86;13.03;;;;;;;;;;367060;144;859425;-59
2021/04/20 00:04:56;;;;;;;20.62;12.14;;;;;;;;;;366261;144;859257;-59
2021/04/20 00:05:58;;;;;;;19.06;11.51;;;;;;;;;;368810;144;864974;-60
2021/04/20 00:07:00;;;;;;;21.41;13.05;;;;;;;;;;366875;144;859141;-60
2021/04/20 00:08:01;;;;;;;21.12;12.87;;;;;;;;;;368094;144;866608;-60
2021/04/20 00:09:07;;;;;;;18.76;12.55;;;;;;;;;;367139;144;864816;-60
2021/04/20 00:10:10;;;;;;;23.32;13.83;;;;;;;;;;365732;147;865062;-60
2021/04/20 00:11:12;;;;;;;27.04;13.53;;;;;;;;;;366020;147;858720;-60
2021/04/20 00:12:13;;;;;;;29.44;13.91;;;;;;;;;;357165;149;866332;-60
2021/04/20 00:13:15;;;;;;;21.19;13.63;;;;;;;;;;369668;145;857514;-60
2021/04/20 00:14:16;;;;;;;25.81;13.06;;;;;;;;;;365874;144;857259;-60
2021/04/20 00:15:19;;;;;;;29.65;14.71;;;;;;;;;;366501;144;857549;-60
2021/04/20 00:16:21;;;;;;;25.85;13.69;;;;;;;;;;368908;144;859766;-61
2021/04/20 00:17:23;;;;;;;26.36;13.41;;;;;;;;;;368918;144;859013;-61
2021/04/20 00:18:24;;;;;;;19.03;12.87;;;;;;;;;;365968;147;864929;-61
2021/04/20 00:19:26;;;;;;;20.15;13.17;;;;;;;;;;366005;144;857394;-61
2021/04/20 00:20:28;;;;;;;19.35;12.99;;;;;;;;;;367093;144;864764;-61
2021/04/20 00:21:30;;;;;;;17.66;12.91;;;;;;;;;;366090;147;857270;-61
2021/04/20 00:22:31;;;;;;;20.21;13.13;;;;;;;;;;366976;144;866439;-61
2021/04/20 00:23:33;;;;;;;21.36;13.16;;;;;;;;;;366501;144;865598;-61
2021/04/20 00:24:34;;;;;;;22.25;13.57;;;;;;;;;;372644;144;865670;-61
2021/04/20 00:25:36;;;;;;;19.59;12.36;;;;;;;;;;366737;144;865473;-61
2021/04/20 00:26:38;;;;;;;19.20;12.20;;;;;;;;;;366883;144;857701;-61
2021/04/20 00:27:39;;;;;;;19.83;12.35;;;;;;;;;;371674;144;864993;-61
2021/04/20 00:28:41;;;;;;;19.12;12.49;;;;;;;;;;368437;144;857390;-61
2021/04/20 00:29:42;;;;;;;20.02;12.19;;;;;;;;;;371107;144;858883;-61
2021/04/20 00:30:45;;;;;;;17.49;11.83;;;;;;;;;;367165;144;859576;-62
2021/04/20 00:31:46;;;;;;;20.34;12.44;;;;;;;;;;367457;144;858484;-61
2021/04/20 00:32:48;;;;;;;19.38;12.30;;;;;;;;;;368975;144;857306;-61
2021/04/20 00:33:49;;;;;;;19.67;12.19;;;;;;;;;;365894;144;861768;-61
2021/04/20 00:34:51;;;;;;;20.34;12.60;;;;;;;;;;366085;146;865743;-62
2021/04/20 00:35:52;;;;;;;21.14;12.39;;;;;;;;;;368676;144;865820;-62
2021/04/20 00:36:54;;;;;;;18.72;12.55;;;;;;;;;;367047;144;865777;-61
2021/04/20 00:37:56;;;;;;;20.99;12.62;;;;;;;;;;366166;147;866180;-61
2021/04/20 00:38:57;;;;;;;21.28;13.05;;;;;;;;;;366089;144;866831;-61
2021/04/20 00:39:59;;;;;;;18.14;11.81;;;;;;;;;;367976;144;858405;-61
2021/04/20 00:41:04;;;;;;;19.48;11.79;;;;;;;;;;367282;144;857477;-61
2021/04/20 00:42:06;;;;;;;18.31;12.73;;;;;;;;;;366333;144;866622;-62
2021/04/20 00:43:08;;;;;;;19.65;11.86;;;;;;;;;;367302;144;857618;-61
2021/04/20 00:44:09;;;;;;;16.90;11.42;;;;;;;;;;366456;144;858439;-62
2021/04/20 00:45:12;;;;;;;18.52;11.49;;;;;;;;;;365890;144;861022;-61
2021/04/20 00:46:15;;;;;;;19.15;12.28;;;;;;;;;;365915;144;860231;-61
2021/04/20 00:47:17;;;;;;;17.55;12.15;;;;;;;;;;366133;147;859786;-61
2021/04/20 00:48:18;;;;;;;17.83;11.71;;;;;;;;;;366044;144;857323;-61
2021/04/20 00:49:20;;;;;;;19.19;11.68;;;;;;;;;;366247;147;863491;-61
2021/04/20 00:50:24;;;;;;;17.17;11.27;;;;;;;;;;367041;144;867995;-61
2021/04/20 00:51:26;;;;;;;17.68;11.46;;;;;;;;;;366647;144;866445;-61
2021/04/20 00:52:27;;;;;;;18.49;11.87;;;;;;;;;;366852;144;857283;-61
2021/04/20 00:53:29;;;;;;;17.73;11.06;;;;;;;;;;367327;144;861441;-61
2021/04/20 00:54:30;;;;;;;18.26;11.56;;;;;;;;;;366172;147;865606;-62
2021/04/20 00:55:32;;;;;;;23.12;13.24;;;;;;;;;;366073;147;865595;-63
2021/04/20 00:56:35;;;;;;;18.19;11.53;;;;;;;;;;367293;144;858992;-63
2021/04/20 00:57:37;;;;;;;18.01;11.76;;;;;;;;;;366113;144;857546;-63
2021/04/20 00:58:39;;;;;;;20.11;11.84;;;;;;;;;;366415;144;862553;-63
2021/04/20 00:59:40;;;;;;;18.93;12.21;;;;;;;;;;366019;147;864783;-63
2021/04/20 01:00:43;;;;;;;18.89;12.09;;;;;;;;;;371857;144;857500;-63
2021/04/20 01:01:45;;;;;;;19.26;11.36;;;;;;;;;;370428;144;859839;-62
2021/04/20 01:02:47;;;;;;;18.37;11.64;;;;;;;;;;369090;144;865023;-62
2021/04/20 01:03:48;;;;;;;19.17;10.94;;;;;;;;;;366715;144;857233;-62
2021/04/20 01:04:50;;;;;;;16.04;10.99;;;;;;;;;;366839;144;864607;-62
2021/04/20 01:05:53;;;;;;;16.71;11.24;;;;;;;;;;367807;144;866803;-62
2021/04/20 01:06:55;;;;;;;18.15;11.25;;;;;;;;;;366670;144;859438;-62
2021/04/20 01:07:57;;;;;;;18.48;10.52;;;;;;;;;;366006;147;857295;-61
2021/04/20 01:08:58;;;;;;;19.04;10.30;;;;;;;;;;370041;144;859861;-62
2021/04/20 01:10:00;;;;;;;14.63;10.56;;;;;;;;;;370146;144;859578;-62
2021/04/20 01:11:01;;;;;;;16.03;10.91;;;;;;;;;;368107;144;865109;-62
2021/04/20 01:12:04;;;;;;;15.85;10.96;;;;;;;;;;366238;144;865165;-61
2021/04/20 01:13:05;;;;;;;15.32;10.59;;;;;;;;;;369621;144;866962;-61
2021/04/20 01:14:07;;;;;;;16.39;11.04;;;;;;;;;;366759;144;860018;-62
2021/04/20 01:15:10;;;;;;;16.90;11.11;;;;;;;;;;368011;144;865045;-61
2021/04/20 01:16:13;;;;;;;14.67;10.61;;;;;;;;;;368851;144;864923;-62
2021/04/20 01:17:15;;;;;;;15.49;10.55;;;;;;;;;;366778;144;858498;-61
2021/04/20 01:18:18;;;;;;;15.26;10.47;;;;;;;;;;368180;144;860468;-61
2021/04/20 01:19:20;;;;;;;14.81;10.31;;;;;;;;;;365932;144;857245;-61
2021/04/20 01:20:21;;;;;;;15.85;10.95;;;;;;;;;;367932;144;857343;-61
2021/04/20 01:21:23;;;;;;;14.74;10.11;;;;;;;;;;366003;144;857340;-62
2021/04/20 01:22:25;;;;;;;16.36;10.49;;;;;;;;;;372463;144;865032;-61
2021/04/20 01:23:28;;;;;;;16.59;10.81;;;;;;;;;;367700;144;857497;-62
2021/04/20 01:24:31;;;;;;;16.52;10.96;;;;;;;;;;365248;144;865825;-61
2021/04/20 01:25:32;;;;;;;15.91;10.81;;;;;;;;;;365865;144;857494;-62
2021/04/20 01:26:36;;;;;;;15.44;10.12;;;;;;;;;;367064;144;857346;-62
2021/04/20 01:27:38;;;;;;;19.26;10.74;;;;;;;;;;372090;144;865750;-62
2021/04/20 01:28:39;;;;;;;17.74;10.83;;;;;;;;;;367639;144;857758;-62
2021/04/20 01:29:41;;;;;;;14.63;10.61;;;;;;;;;;363688;146;862770;-61
2021/04/20 01:30:43;;;;;;;15.14;10.73;;;;;;;;;;363358;147;859120;-61
2021/04/20 01:31:45;;;;;;;15.52;10.71;;;;;;;;;;365787;144;857517;-61
2021/04/20 01:32:46;;;;;;;14.47;10.29;;;;;;;;;;367968;144;860498;-60
2021/04/20 01:33:48;;;;;;;14.53;10.15;;;;;;;;;;365855;147;857479;-61
2021/04/20 01:34:50;;;;;;;15.89;10.79;;;;;;;;;;368657;144;859827;-61
2021/04/20 01:35:51;;;;;;;16.56;10.57;;;;;;;;;;371274;144;865071;-61
2021/04/20 01:36:53;;;;;;;18.17;11.07;;;;;;;;;;367226;144;857322;-61
2021/04/20 01:37:55;;;;;;;15.74;10.14;;;;;;;;;;366432;144;865119;-61
2021/04/20 01:38:57;;;;;;;14.32;10.08;;;;;;;;;;365869;147;857299;-60
2021/04/20 01:39:58;;;;;;;14.55;10.33;;;;;;;;;;365816;144;859958;-61
2021/04/20 01:41:00;;;;;;;13.72;10.28;;;;;;;;;;365983;146;858531;-61
2021/04/20 01:42:22;;;;;;;14.51;10.16;;;;;;;;;;367576;141;857586;-60
2021/04/20 01:43:23;;;;;;;14.32;9.61;;;;;;;;;;352062;150;859259;-61
2021/04/20 01:44:25;;;;;;;14.96;9.55;;;;;;;;;;356729;149;859130;-60
2021/04/20 01:45:27;;;;;;;13.59;9.76;;;;;;;;;;353370;149;865580;-60
2021/04/20 01:46:29;;;;;;;13.24;9.51;;;;;;;;;;353167;149;860944;-60
2021/04/20 01:48:55;;;;;;;14.69;9.79;;;;;;;;;;355189;150;857413;-61
2021/04/20 01:49:56;;;;;;;13.36;9.44;;;;;;;;;;353843;150;857691;-60
2021/04/20 01:50:58;;;;;;;12.79;9.49;;;;;;;;;;354117;149;865653;-60
2021/04/20 01:52:00;;;;;;;12.89;9.64;;;;;;;;;;352531;152;865088;-61
2021/04/20 01:53:01;;;;;;;15.15;9.94;;;;;;;;;;351098;151;857315;-60
2021/04/20 01:54:03;;;;;;;14.64;9.66;;;;;;;;;;350192;152;860047;-60
2021/04/20 01:55:05;;;;;;;14.46;9.95;;;;;;;;;;347826;150;859821;-60
2021/04/20 01:56:08;;;;;;;15.03;9.95;;;;;;;;;;349307;151;857195;-61
2021/04/20 01:57:10;;;;;;;12.76;9.40;;;;;;;;;;347833;153;865651;-61
2021/04/20 01:58:11;;;;;;;16.07;9.37;;;;;;;;;;350393;153;857281;-61
2021/04/20 01:59:15;;;;;;;16.37;10.32;;;;;;;;;;348970;151;857427;-61
2021/04/20 02:00:18;;;;;;;13.75;9.52;;;;;;;;;;349974;152;857417;-61
2021/04/20 02:01:20;;;;;;;16.23;9.41;;;;;;;;;;349238;151;857376;-61
2021/04/20 02:02:21;;;;;;;15.56;9.95;;;;;;;;;;350206;152;857927;-60
2021/04/20 02:03:26;;;;;;;13.31;9.64;;;;;;;;;;353786;151;857249;-60
2021/04/20 02:04:28;;;;;;;14.98;9.32;;;;;;;;;;355131;149;857554;-60
2021/04/20 02:05:30;;;;;;;11.25;8.66;;;;;;;;;;356107;151;859462;-60
2021/04/20 02:06:33;;;;;;;13.62;9.17;;;;;;;;;;356873;150;865096;-61
2021/04/20 02:07:35;;;;;;;13.96;8.94;;;;;;;;;;356866;150;858823;-60
2021/04/20 02:08:38;;;;;;;15.36;9.43;;;;;;;;;;351041;148;857384;-61
2021/04/20 02:10:44;;;;;;;13.09;9.54;;;;;;;;;;341329;155;857447;-60
2021/04/20 02:11:45;;;;;;;13.59;8.69;;;;;;;;;;341197;155;860071;-60
2021/04/20 02:12:47;;;;;;;12.39;8.44;;;;;;;;;;342672;155;864974;-60
2021/04/20 02:13:48;;;;;;;15.97;9.58;;;;;;;;;;340690;158;858405;-60
2021/04/20 02:15:10;;;;;;;13.38;8.75;;;;;;;;;;341625;155;859442;-60
2021/04/20 02:16:12;;;;;;;12.84;8.60;;;;;;;;;;340033;158;860085;-60
2021/04/20 02:17:14;;;;;;;17.18;9.46;;;;;;;;;;339212;158;859611;-60
2021/04/20 02:18:16;;;;;;;12.55;9.15;;;;;;;;;;335462;155;864980;-60
2021/04/20 02:19:17;;;;;;;13.10;8.94;;;;;;;;;;340103;158;857168;-60
2021/04/20 02:20:19;;;;;;;12.18;9.02;;;;;;;;;;336487;158;857576;-60
2021/04/20 02:21:21;;;;;;;13.59;8.73;;;;;;;;;;333070;160;857450;-60
2021/04/20 02:22:22;;;;;;;13.40;8.79;;;;;;;;;;333571;161;860363;-61
2021/04/20 02:23:24;;;;;;;13.31;9.03;;;;;;;;;;337716;158;866223;-60
2021/04/20 02:24:25;;;;;;;13.72;9.39;;;;;;;;;;335629;158;865552;-61
2021/04/20 02:25:27;;;;;;;14.36;9.63;;;;;;;;;;339638;158;864899;-61
2021/04/20 02:26:31;;;;;;;15.17;9.30;;;;;;;;;;339409;158;857261;-61
2021/04/20 02:27:33;;;;;;;14.86;9.96;;;;;;;;;;340839;157;857520;-61
2021/04/20 02:28:34;;;;;;;13.08;9.05;;;;;;;;;;341429;156;857424;-61
2021/04/20 02:29:36;;;;;;;14.40;9.65;;;;;;;;;;339584;158;858006;-60
2021/04/20 02:30:38;;;;;;;14.73;9.49;;;;;;;;;;339950;155;858185;-61
2021/04/20 02:31:41;;;;;;;13.15;9.36;;;;;;;;;;339222;156;860047;-60
2021/04/20 02:32:42;;;;;;;15.01;9.29;;;;;;;;;;343054;155;866111;-61
2021/04/20 02:33:44;;;;;;;14.49;9.43;;;;;;;;;;343012;155;865533;-60
2021/04/20 02:34:45;;;;;;;14.24;9.49;;;;;;;;;;339085;158;857410;-61
2021/04/20 02:35:47;;;;;;;13.94;9.71;;;;;;;;;;340063;158;859771;-60
2021/04/20 02:36:51;;;;;;;14.01;9.05;;;;;;;;;;339184;158;865242;-61
2021/04/20 02:37:52;;;;;;;15.67;9.11;;;;;;;;;;338010;158;857294;-61
2021/04/20 02:38:54;;;;;;;11.90;8.41;;;;;;;;;;340039;158;859284;-61
2021/04/20 02:39:55;;;;;;;13.70;8.88;;;;;;;;;;337292;158;859569;-61
2021/04/20 02:40:58;;;;;;;14.39;9.18;;;;;;;;;;339521;155;865095;-61
2021/04/20 02:41:59;;;;;;;15.44;8.89;;;;;;;;;;339028;158;865176;-61
2021/04/20 02:43:01;;;;;;;14.52;9.03;;;;;;;;;;337403;158;859074;-61
2021/04/20 02:44:05;;;;;;;13.25;9.41;;;;;;;;;;339647;158;865837;-60
2021/04/20 02:45:07;;;;;;;15.42;8.68;;;;;;;;;;339928;156;857266;-61
2021/04/20 02:46:09;;;;;;;14.54;9.31;;;;;;;;;;340907;156;867040;-60
2021/04/20 02:47:11;;;;;;;12.80;8.47;;;;;;;;;;338025;155;860801;-60
2021/04/20 02:48:12;;;;;;;13.48;9.36;;;;;;;;;;339975;156;860234;-60
2021/04/20 02:49:14;;;;;;;14.96;9.71;;;;;;;;;;340249;158;859808;-60
2021/04/20 02:50:21;;;;;;;12.68;9.09;;;;;;;;;;338904;155;865054;-60
2021/04/20 02:51:22;;;;;;;14.92;9.46;;;;;;;;;;335252;158;857787;-61
2021/04/20 02:52:24;;;;;;;16.07;9.91;;;;;;;;;;338677;158;857757;-60
2021/04/20 02:53:26;;;;;;;12.32;8.86;;;;;;;;;;338952;155;865868;-60
2021/04/20 02:54:27;;;;;;;14.36;9.41;;;;;;;;;;339958;158;859136;-60
2021/04/20 02:55:29;;;;;;;14.64;9.23;;;;;;;;;;340820;155;865495;-61
2021/04/20 02:56:32;;;;;;;14.29;10.02;;;;;;;;;;339349;155;865583;-60
2021/04/20 02:57:37;;;;;;;14.81;9.77;;;;;;;;;;340088;158;859409;-60
2021/04/20 02:58:39;;;;;;;16.11;10.70;;;;;;;;;;339880;158;858631;-60
2021/04/20 02:59:41;;;;;;;15.53;10.31;;;;;;;;;;340115;158;857555;-60
2021/04/20 03:00:44;;;;;;;15.52;10.77;;;;;;;;;;338711;158;857493;-60
2021/04/20 03:01:46;;;;;;;15.35;10.05;;;;;;;;;;339707;158;860063;-60
2021/04/20 03:02:55;;;;;;;16.50;10.56;;;;;;;;;;334126;158;857281;-60
2021/04/20 03:05:20;;;;;;;14.31;9.78;;;;;;;;;;355558;149;857564;-60
2021/04/20 03:06:23;;;;;;;15.93;10.63;;;;;;;;;;358296;149;857238;-60
2021/04/20 03:07:24;;;;;;;14.91;10.54;;;;;;;;;;358293;147;857921;-61
2021/04/20 03:08:26;;;;;;;14.57;10.44;;;;;;;;;;358076;149;865015;-60
2021/04/20 03:09:28;;;;;;;16.38;9.81;;;;;;;;;;358342;149;860412;-60
2021/04/20 03:10:32;;;;;;;14.91;9.74;;;;;;;;;;358677;147;858940;-60
2021/04/20 03:11:34;;;;;;;14.53;10.01;;;;;;;;;;358976;147;860247;-60
2021/04/20 03:12:36;;;;;;;13.97;9.68;;;;;;;;;;359414;147;857363;-59
2021/04/20 03:13:37;;;;;;;16.14;10.06;;;;;;;;;;359229;148;857502;-60
2021/04/20 03:14:39;;;;;;;16.17;10.61;;;;;;;;;;359985;148;857532;-60
2021/04/20 03:15:41;;;;;;;15.14;9.85;;;;;;;;;;360036;148;856920;-60
2021/04/20 03:16:43;;;;;;;12.61;9.77;;;;;;;;;;359007;149;865162;-61
2021/04/20 03:17:46;;;;;;;15.61;9.82;;;;;;;;;;359841;149;857240;-61
2021/04/20 03:18:48;;;;;;;15.91;9.76;;;;;;;;;;357429;149;864814;-61
2021/04/20 03:19:49;;;;;;;14.31;9.89;;;;;;;;;;358386;149;866760;-60
2021/04/20 03:20:51;;;;;;;12.99;10.18;;;;;;;;;;359931;149;866900;-60
2021/04/20 03:21:52;;;;;;;13.71;10.03;;;;;;;;;;358219;147;865858;-61
2021/04/20 03:22:55;;;;;;;14.17;9.66;;;;;;;;;;356984;149;857380;-60
2021/04/20 03:23:57;;;;;;;13.85;9.95;;;;;;;;;;357868;149;865065;-60
2021/04/20 03:25:06;;;;;;;14.71;9.77;;;;;;;;;;358175;149;857911;-60
2021/04/20 03:26:17;;;;;;;15.46;10.24;;;;;;;;;;356768;150;858499;-61
2021/04/20 03:27:19;;;;;;;14.52;10.07;;;;;;;;;;356372;149;858851;-61
2021/04/20 03:28:21;;;;;;;14.36;9.94;;;;;;;;;;356051;149;858624;-61
2021/04/20 03:29:22;;;;;;;15.14;10.11;;;;;;;;;;357545;148;865073;-61
2021/04/20 03:30:25;;;;;;;14.63;10.47;;;;;;;;;;357678;149;865559;-62
2021/04/20 03:31:27;;;;;;;17.20;10.70;;;;;;;;;;353887;149;860832;-62
2021/04/20 03:32:29;;;;;;;15.16;9.88;;;;;;;;;;356761;150;865123;-62
2021/04/20 03:33:31;;;;;;;15.91;10.56;;;;;;;;;;358408;149;865577;-61
2021/04/20 03:34:35;;;;;;;14.71;10.71;;;;;;;;;;354226;150;865088;-61
2021/04/20 03:35:41;;;;;;;15.51;10.08;;;;;;;;;;358137;149;865146;-61
2021/04/20 03:36:46;;;;;;;15.95;10.27;;;;;;;;;;358396;149;858863;-61
2021/04/20 03:38:06;;;;;;;15.32;10.44;;;;;;;;;;359168;149;857358;-61
2021/04/20 03:39:09;;;;;;;16.23;10.61;;;;;;;;;;356388;149;859293;-62
2021/04/20 03:40:12;;;;;;;16.37;10.77;;;;;;;;;;359074;150;865019;-62
2021/04/20 03:41:15;;;;;;;15.01;10.65;;;;;;;;;;355872;149;859406;-62
2021/04/20 03:42:18;;;;;;;16.27;10.62;;;;;;;;;;357742;149;857450;-62
2021/04/20 03:43:20;;;;;;;15.01;10.24;;;;;;;;;;357387;150;857499;-62
2021/04/20 03:44:22;;;;;;;15.17;10.93;;;;;;;;;;359314;149;865026;-62
2021/04/20 03:45:28;;;;;;;17.17;10.08;;;;;;;;;;359252;149;857329;-62
2021/04/20 03:46:36;;;;;;;14.81;10.39;;;;;;;;;;358187;149;857770;-62
2021/04/20 03:47:38;;;;;;;15.28;10.89;;;;;;;;;;358067;149;857906;-62
2021/04/20 03:48:43;;;;;;;15.54;10.41;;;;;;;;;;353508;149;858307;-62
2021/04/20 03:49:47;;;;;;;18.18;11.47;;;;;;;;;;355504;150;857953;-62
2021/04/20 03:50:53;;;;;;;15.47;11.18;;;;;;;;;;358627;149;858553;-62
2021/04/20 03:51:55;;;;;;;14.24;10.21;;;;;;;;;;357509;149;857770;-62
2021/04/20 03:52:59;;;;;;;16.10;10.93;;;;;;;;;;358354;147;858077;-62
2021/04/20 03:54:06;;;;;;;14.34;10.46;;;;;;;;;;357990;148;866167;-62
2021/04/20 03:56:33;;;;;;;14.80;10.26;;;;;;;;;;363740;146;857790;-59
2021/04/20 03:57:34;;;;;;;24.72;10.74;;;;;;;;;;364301;144;857858;-59
2021/04/20 03:58:37;;;;;;;15.14;10.09;;;;;;;;;;366794;144;866197;-62
2021/04/20 03:59:39;;;;;;;16.19;10.63;;;;;;;;;;365383;144;857380;-62
2021/04/20 04:00:42;;;;;;;16.02;10.30;;;;;;;;;;365284;144;857307;-62
2021/04/20 04:01:45;;;;;;;15.61;10.54;;;;;;;;;;361936;147;857335;-62
2021/04/20 04:02:47;;;;;;;14.42;10.24;;;;;;;;;;362045;145;866768;-62
2021/04/20 04:03:49;;;;;;;15.44;10.73;;;;;;;;;;366941;144;857254;-62
2021/04/20 04:04:50;;;;;;;14.91;10.07;;;;;;;;;;371383;144;861978;-62
2021/04/20 04:05:52;;;;;;;13.61;10.11;;;;;;;;;;364491;144;861094;-62
2021/04/20 04:06:54;;;;;;;14.40;10.15;;;;;;;;;;363885;147;865734;-62
2021/04/20 04:07:57;;;;;;;13.81;10.16;;;;;;;;;;361943;144;865009;-61
2021/04/20 04:08:58;;;;;;;14.27;10.13;;;;;;;;;;359718;147;864950;-62
2021/04/20 04:10:00;;;;;;;19.79;10.96;;;;;;;;;;365366;147;857358;-62
2021/04/20 04:11:03;;;;;;;16.35;10.63;;;;;;;;;;364907;146;861253;-62
2021/04/20 04:12:06;;;;;;;14.24;10.47;;;;;;;;;;364540;146;858357;-62
2021/04/20 04:13:08;;;;;;;14.24;10.54;;;;;;;;;;363385;145;859901;-62
2021/04/20 04:14:10;;;;;;;14.66;9.98;;;;;;;;;;362293;145;857501;-62
2021/04/20 04:15:12;;;;;;;13.26;10.01;;;;;;;;;;361898;144;858218;-62
2021/04/20 04:16:16;;;;;;;14.44;9.77;;;;;;;;;;355720;150;857575;-62
2021/04/20 04:17:18;;;;;;;13.74;10.18;;;;;;;;;;355741;149;857136;-62
2021/04/20 04:18:20;;;;;;;14.43;9.58;;;;;;;;;;367256;144;859392;-62
2021/04/20 04:19:22;;;;;;;13.14;9.43;;;;;;;;;;365944;146;866315;-62
2021/04/20 04:20:24;;;;;;;13.73;10.37;;;;;;;;;;361527;147;857886;-62
2021/04/20 04:21:27;;;;;;;15.14;10.07;;;;;;;;;;362527;145;857313;-62
2021/04/20 04:22:29;;;;;;;14.44;9.97;;;;;;;;;;357793;149;866846;-62
2021/04/20 04:23:31;;;;;;;13.72;9.63;;;;;;;;;;353115;149;857910;-62
2021/04/20 04:24:35;;;;;;;12.47;9.71;;;;;;;;;;355161;149;859095;-62
2021/04/20 04:25:38;;;;;;;12.88;9.74;;;;;;;;;;355651;147;866092;-62
2021/04/20 04:28:04;;;;;;;12.41;9.67;;;;;;;;;;369585;143;857868;-61
2021/04/20 04:29:08;;;;;;;14.99;10.21;;;;;;;;;;369235;143;857402;-61
2021/04/20 04:30:10;;;;;;;15.92;10.45;;;;;;;;;;370405;143;857282;-61
2021/04/20 04:31:11;;;;;;;14.61;10.43;;;;;;;;;;367973;143;858897;-61
2021/04/20 04:32:13;;;;;;;16.12;10.48;;;;;;;;;;369488;143;858350;-61
2021/04/20 04:33:15;;;;;;;15.17;10.42;;;;;;;;;;374636;143;859936;-61
2021/04/20 04:34:17;;;;;;;18.41;10.57;;;;;;;;;;369018;143;857191;-61
2021/04/20 04:35:18;;;;;;;16.31;10.66;;;;;;;;;;372049;143;865674;-61
2021/04/20 04:36:22;;;;;;;16.11;11.16;;;;;;;;;;373673;143;860269;-61
2021/04/20 04:37:23;;;;;;;16.72;10.76;;;;;;;;;;370169;143;857373;-61
2021/04/20 04:38:25;;;;;;;15.85;11.04;;;;;;;;;;371990;143;865061;-61
2021/04/20 04:39:26;;;;;;;18.86;11.29;;;;;;;;;;362357;143;864929;-61
2021/04/20 04:40:32;;;;;;;17.85;11.06;;;;;;;;;;365836;144;864998;-61
2021/04/20 04:41:33;;;;;;;15.01;10.99;;;;;;;;;;369366;143;857862;-61
2021/04/20 04:42:35;;;;;;;16.50;10.15;;;;;;;;;;370675;143;858370;-61
2021/04/20 04:43:36;;;;;;;17.44;11.00;;;;;;;;;;365354;146;862613;-61
2021/04/20 04:44:38;;;;;;;14.47;10.91;;;;;;;;;;361422;147;865261;-61
2021/04/20 04:45:40;;;;;;;17.35;10.84;;;;;;;;;;363307;144;865587;-61
2021/04/20 04:46:44;;;;;;;16.55;10.89;;;;;;;;;;363716;144;865191;-61
2021/04/20 04:47:45;;;;;;;15.97;11.27;;;;;;;;;;370540;144;858790;-61
2021/04/20 04:48:48;;;;;;;14.98;11.14;;;;;;;;;;361908;144;857334;-61
2021/04/20 04:49:50;;;;;;;16.36;11.30;;;;;;;;;;362594;144;865110;-61
2021/04/20 04:50:52;;;;;;;19.86;11.64;;;;;;;;;;362953;144;858242;-61
2021/04/20 04:51:54;;;;;;;16.11;11.43;;;;;;;;;;365188;144;857775;-61
2021/04/20 04:52:56;;;;;;;16.35;11.33;;;;;;;;;;359702;147;859590;-61
2021/04/20 04:53:57;;;;;;;18.33;11.76;;;;;;;;;;363670;144;858085;-61
2021/04/20 04:54:59;;;;;;;15.10;10.49;;;;;;;;;;362390;144;860502;-61
2021/04/20 04:57:27;;;;;;;16.95;10.80;;;;;;;;;;360623;146;859536;-61
2021/04/20 04:58:30;;;;;;;18.53;11.61;;;;;;;;;;358226;150;857684;-61
2021/04/20 04:59:32;;;;;;;18.21;12.45;;;;;;;;;;358961;147;857822;-62
2021/04/20 05:00:34;;;;;;;17.19;11.27;;;;;;;;;;359048;147;857484;-61
2021/04/20 05:01:36;;;;;;;18.26;12.03;;;;;;;;;;358462;147;858301;-61
2021/04/20 05:02:41;;;;;;;16.52;11.14;;;;;;;;;;358417;147;860833;-61
2021/04/20 05:03:42;;;;;;;17.25;12.59;;;;;;;;;;354791;150;857838;-61
2021/04/20 05:04:44;;;;;;;17.51;12.31;;;;;;;;;;357215;150;857759;-61
2021/04/20 05:05:45;;;;;;;22.26;12.27;;;;;;;;;;357401;148;865564;-61
2021/04/20 05:06:48;;;;;;;17.44;12.68;;;;;;;;;;354060;149;859035;-62
2021/04/20 05:07:50;;;;;;;18.95;11.59;;;;;;;;;;355806;147;859536;-61
2021/04/20 05:08:52;;;;;;;16.60;11.66;;;;;;;;;;357838;148;857755;-61
2021/04/20 05:09:53;;;;;;;18.17;12.24;;;;;;;;;;358218;149;865049;-61
2021/04/20 05:11:01;;;;;;;17.10;11.96;;;;;;;;;;358186;148;857754;-61
2021/04/20 05:12:05;;;;;;;16.38;11.61;;;;;;;;;;367681;144;866074;-61
2021/04/20 05:13:07;;;;;;;19.02;11.42;;;;;;;;;;367872;142;857829;-61
2021/04/20 05:14:09;;;;;;;18.13;12.02;;;;;;;;;;368588;143;859204;-61
2021/04/20 05:15:15;;;;;;;17.50;12.36;;;;;;;;;;361722;147;857076;-61
2021/04/20 05:16:17;;;;;;;18.52;11.51;;;;;;;;;;363156;144;856131;-61
2021/04/20 05:17:21;;;;;;;15.88;11.13;;;;;;;;;;357999;146;856674;-61
2021/04/20 05:18:23;;;;;;;22.20;13.01;;;;;;;;;;354618;147;865123;-60
2021/04/20 05:19:30;;;;;;;16.33;12.25;;;;;;;9.47;100.00;148054.28;360938;146;858413;-61
2021/04/20 05:20:32;;;;;;;14.88;9.82;;;;;;;;;;366743;145;857392;-62
2021/04/20 05:21:34;;;;;;;15.99;10.46;;;;;;;;;;366172;144;857805;-62
2021/04/20 05:22:35;;;;;;;16.10;10.88;;;;;;;;;;362400;143;864347;-59
2021/04/20 05:23:37;;;;;;;16.87;11.34;;;;;;;;;;349362;153;865154;-61
2021/04/20 05:24:39;;;;;;;20.22;11.59;;;;;;;;;;349856;153;860160;-60
2021/04/20 05:25:40;;;;;;;15.51;11.06;;;;;;;;;;348140;153;857427;-60
2021/04/20 05:26:44;;;;;;;16.21;11.23;;;;;;;;;;345325;153;865965;-60
2021/04/20 05:27:45;;;;;;;20.79;11.77;;;;;;;;;;349889;151;858373;-60
2021/04/20 05:28:47;;;;;;;18.26;12.38;;;;;;;;;;349723;153;866817;-60
2021/04/20 05:29:48;;;;;;;17.66;12.40;;;;;;;;;;346277;151;860155;-60
2021/04/20 05:30:52;;;;;;;16.24;11.93;;;;;;;;;;349426;153;866267;-60
2021/04/20 05:31:53;;;;;;;17.42;11.98;;;;;;;;;;349096;153;857535;-60
2021/04/20 05:32:57;;;;;;;15.91;11.41;;;;;;;;;;345369;155;857556;-61
2021/04/20 05:34:02;;;;;;;18.33;12.63;;;;;;;;;;343540;155;865222;-61
2021/04/20 05:35:05;;;;;;;17.25;12.66;;;;;;;;;;348530;153;859546;-60
2021/04/20 05:36:07;;;;;;;17.22;12.16;;;;;;;;;;350582;153;857214;-60
2021/04/20 05:37:09;;;;;;;15.50;11.97;;;;;;;;;;348893;153;859619;-61
2021/04/20 05:38:10;;;;;;;16.19;11.29;;;;;;;;;;349115;153;857352;-61
2021/04/20 05:39:12;;;;;;;17.21;11.64;;;;;;;;;;348273;153;857745;-60
2021/04/20 05:40:16;;;;;;;17.24;12.01;;;;;;;;;;348655;153;865737;-61
2021/04/20 05:41:22;;;;;;;15.69;11.41;;;;;;;;;;349157;152;865771;-60
2021/04/20 05:42:24;;;;;;;16.82;11.81;;;;;;;;;;347953;153;857833;-61
2021/04/20 05:43:25;;;;;;;17.24;11.69;;;;;;;;;;347735;154;859650;-61
2021/04/20 05:44:31;;;;;;;16.64;11.57;;;;;;;;;;349005;151;866309;-61
2021/04/20 05:45:31;;;;;;;17.16;11.36;;;;;;;;;;349920;151;867408;-61
2021/04/20 05:46:37;;;;;;;19.15;12.19;;;;;;;;;;341422;155;857841;-61
2021/04/20 05:47:40;;;;;;;18.10;11.70;;;;;;;;;;338061;154;866710;-61
2021/04/20 05:48:42;;;;;;;16.44;11.09;;;;;;;;;;344505;154;856967;-61
2021/04/20 05:49:43;;;;;;;15.31;11.33;;;;;;;;;;345415;154;859426;-61
2021/04/20 05:50:50;;;;;;;15.59;11.43;;;;;;;;;;345200;154;859291;-61
2021/04/20 05:51:50;;;;;;;17.11;12.06;;;;;;;;;;350023;153;857434;-60
2021/04/20 05:52:52;;;;;;;17.92;11.07;;;;;;;;;;348154;153;857460;-60
2021/04/20 05:53:54;;;;;;;16.29;10.90;;;;;;;;;;348652;153;865304;-60
2021/04/20 05:54:58;;;;;;;16.21;10.68;;;;;;;;;;347678;153;857926;-60
2021/04/20 05:56:01;;;;;;;15.55;10.68;;;;;;;;;;349500;152;865856;-60
2021/04/20 05:57:03;;;;;;;19.30;11.73;;;;;;;;;;347708;151;865156;-60
2021/04/20 05:58:04;;;;;;;17.43;10.96;;;;;;;;;;350525;153;858554;-60
2021/04/20 05:59:06;;;;;;;15.45;10.54;;;;;;;;;;349940;152;857474;-62
2021/04/20 06:00:08;;;;;;;13.38;9.86;;;;;;;;;;349465;152;857841;-60
2021/04/20 06:01:10;;;;;;;14.03;10.49;;;;;;;;;;350542;151;858995;-60
2021/04/20 06:02:13;;;;;;;13.56;10.21;;;;;;;;;;347605;152;858415;-61
2021/04/20 06:03:14;;;;;;;12.46;9.35;;;;;;;;;;348030;153;865054;-60
2021/04/20 06:04:16;;;;;;;13.77;9.68;;;;;;;;;;344202;153;857269;-60
2021/04/20 06:05:19;;;;;;;16.07;9.68;;;;;;;;;;342143;153;866829;-60
2021/04/20 06:06:21;;;;;;;13.93;9.58;;;;;;;;;;349815;150;863969;-61
2021/04/20 06:07:23;;;;;;;12.17;8.90;;;;;;;;;;346161;153;856291;-61